createdAt,value
2024-04-18T00:01:20.528Z,101531.16
2024-04-18T00:03:47.887Z,101537.41
2024-04-18T00:06:15.907Z,101534.81
2024-04-18T00:08:43.223Z,101535.75
2024-04-18T00:11:25.959Z,101534.72
2024-04-18T00:13:53.260Z,101539.22
2024-04-18T00:16:36.048Z,101547.38
2024-04-18T00:19:19.444Z,101549.09
2024-04-18T00:22:04.370Z,101542.78
2024-04-18T00:24:32.094Z,101549.19
2024-04-18T00:27:19.394Z,101550.31
2024-04-18T00:29:47.958Z,101554.88
2024-04-18T00:32:17.107Z,101554.97
2024-04-18T00:35:04.562Z,101558.69
2024-04-18T00:37:38.283Z,101566.75
2024-04-18T00:40:06.130Z,101553.41
2024-04-18T00:42:40.327Z,101563.28
2024-04-18T00:45:08.516Z,101565.09
2024-04-18T00:47:49.780Z,101563.38
2024-04-18T00:50:19.422Z,101574.19
2024-04-18T00:52:48.076Z,101570.72
2024-04-18T00:55:31.473Z,101569.88
2024-04-18T00:58:12.605Z,101569.97
2024-04-18T01:00:44.750Z,101570.13
2024-04-18T01:03:36.162Z,101576.53
2024-04-18T01:06:10.709Z,101576.72
2024-04-18T01:08:57.452Z,101579.50
2024-04-18T01:11:31.138Z,101575.25
2024-04-18T01:14:01.139Z,101581.56
2024-04-18T01:16:48.363Z,101579.84
2024-04-18T01:19:20.527Z,101585.13
2024-04-18T01:21:50.873Z,101582.34
2024-04-18T01:24:18.100Z,101583.28
2024-04-18T01:26:45.369Z,101590.56
2024-04-18T01:29:12.572Z,101600.53
2024-04-18T01:31:59.835Z,101596.19
2024-04-18T01:34:27.360Z,101609.59
2024-04-18T01:37:14.410Z,101600.88
2024-04-18T01:39:42.657Z,101601.91
2024-04-18T01:42:10.005Z,101605.63
2024-04-18T01:44:43.703Z,101606.66
2024-04-18T01:47:29.679Z,101606.03
2024-04-18T01:50:09.617Z,101603.50
2024-04-18T01:52:40.801Z,101609.03
2024-04-18T01:55:09.488Z,101609.03
2024-04-18T01:57:39.669Z,101615.34
2024-04-18T02:00:27.729Z,101620.78
2024-04-18T02:02:55.083Z,101619.06
2024-04-18T02:05:40.847Z,101625.38
2024-04-18T02:08:14.601Z,101622.88
2024-04-18T02:10:51.494Z,101628.47
2024-04-18T02:13:37.487Z,101626.81
2024-04-18T02:16:05.964Z,101629.75
2024-04-18T02:19:07.969Z,101634.50
2024-04-18T02:21:56.110Z,101648.06
2024-04-18T02:24:36.184Z,101641.06
2024-04-18T02:27:03.439Z,101652.97
2024-04-18T02:29:30.656Z,101651.41
2024-04-18T02:32:01.138Z,101663.16
2024-04-18T02:34:31.160Z,101654.25
2024-04-18T02:36:58.365Z,101661.50
2024-04-18T02:39:25.850Z,101666.94
2024-04-18T02:41:53.177Z,101668.81
2024-04-18T02:44:49.209Z,101670.72
2024-04-18T02:47:17.064Z,101674.25
2024-04-18T02:50:04.380Z,101679.06
2024-04-18T02:52:31.628Z,101678.22
2024-04-18T02:54:58.856Z,101686.41
2024-04-18T02:57:26.274Z,101688.38
2024-04-18T02:59:53.490Z,101688.44
2024-04-18T03:02:27.530Z,101691.13
2024-04-18T03:05:13.212Z,101693.88
2024-04-18T03:07:40.545Z,101695.69
2024-04-18T03:10:08.094Z,101703.75
2024-04-18T03:12:56.104Z,101703.03
2024-04-18T03:15:47.170Z,101704.97
2024-04-18T03:18:15.013Z,101708.75
2024-04-18T03:20:42.801Z,101705.34
2024-04-18T03:23:10.869Z,101710.06
2024-04-18T03:25:59.839Z,101710.28
2024-04-18T03:28:27.174Z,101714.06
2024-04-18T03:30:54.452Z,101717.84
2024-04-18T03:33:21.861Z,101712.63
2024-04-18T03:35:49.205Z,101714.66
2024-04-18T03:38:17.338Z,101721.03
2024-04-18T03:40:56.148Z,101720.31
2024-04-18T03:43:23.396Z,101732.13
2024-04-18T03:46:01.297Z,101734.88
2024-04-18T03:48:31.791Z,101735.09
2024-04-18T03:50:59.416Z,101737.03
2024-04-18T03:53:46.572Z,101737.13
2024-04-18T03:56:14.053Z,101742.59
2024-04-18T03:58:41.316Z,101739.13
2024-04-18T04:01:08.761Z,101743.66
2024-04-18T04:03:36.241Z,101747.28
2024-04-18T04:06:03.574Z,101745.47
2024-04-18T04:08:30.836Z,101742.88
2024-04-18T04:11:13.195Z,101751.84
2024-04-18T04:13:40.636Z,101757.34
2024-04-18T04:16:21.281Z,101760.94
2024-04-18T04:19:08.592Z,101760.13
2024-04-18T04:21:51.140Z,101770.09
2024-04-18T04:24:18.484Z,101771.03
2024-04-18T04:26:52.288Z,101777.25
2024-04-18T04:29:20.222Z,101780.06
2024-04-18T04:31:47.798Z,101775.75
2024-04-18T04:34:15.125Z,101791.72
2024-04-18T04:36:43.258Z,101789.03
2024-04-18T04:39:10.547Z,101793.31
2024-04-18T04:41:41.246Z,101799.47
2024-04-18T04:44:08.567Z,101798.53
2024-04-18T04:46:52.434Z,101797.72
2024-04-18T04:49:20.866Z,101802.22
2024-04-18T04:52:00.869Z,101804.94
2024-04-18T04:54:44.224Z,101805.09
2024-04-18T04:57:12.322Z,101813.91
2024-04-18T04:59:39.683Z,101811.25
2024-04-18T05:02:07.295Z,101811.09
2024-04-18T05:04:50.916Z,101815.44
2024-04-18T05:07:30.224Z,101823.47
2024-04-18T05:09:57.933Z,101819.94
2024-04-18T05:12:25.216Z,101826.22
2024-04-18T05:14:52.459Z,101828.03
2024-04-18T05:17:38.620Z,101836.13
2024-04-18T05:20:12.193Z,101837.13
2024-04-18T05:22:39.778Z,101827.38
2024-04-18T05:25:07.851Z,101845.22
2024-04-18T05:27:43.949Z,101846.09
2024-04-18T05:30:50.245Z,101847.03
2024-04-18T05:33:17.881Z,101850.56
2024-04-18T05:35:45.872Z,101861.22
2024-04-18T05:38:13.050Z,101869.16
2024-04-18T05:40:40.268Z,101871.72
2024-04-18T05:43:07.858Z,101865.38
2024-04-18T05:45:48.450Z,101875.06
2024-04-18T05:48:16.032Z,101878.56
2024-04-18T05:50:43.538Z,101881.09
2024-04-18T05:53:23.053Z,101881.03
2024-04-18T05:55:56.071Z,101874.66
2024-04-18T05:58:23.399Z,101881.38
2024-04-18T06:00:59.856Z,101890.66
2024-04-18T06:03:27.381Z,101885.81
2024-04-18T06:05:55.249Z,101895.06
2024-04-18T06:08:22.452Z,101905.13
2024-04-18T06:10:49.978Z,101895.69
2024-04-18T06:13:23.888Z,101901.56
2024-04-18T06:15:51.355Z,101898.56
2024-04-18T06:18:19.198Z,101901.97
2024-04-18T06:20:48.392Z,101904.44
2024-04-18T06:23:15.938Z,101910.66
2024-04-18T06:25:43.843Z,101915.31
2024-04-18T06:28:12.621Z,101918.31
2024-04-18T06:30:43.058Z,101930.41
2024-04-18T06:33:13.413Z,101915.13
2024-04-18T06:35:42.825Z,101921.25
2024-04-18T06:38:10.221Z,101922.84
2024-04-18T06:40:37.807Z,101930.81
2024-04-18T06:43:05.189Z,101925.53
2024-04-18T06:45:32.521Z,101930.13
2024-04-18T06:47:59.857Z,101928.09
2024-04-18T06:50:28.328Z,101931.41
2024-04-18T06:52:56.080Z,101937.28
2024-04-18T06:55:24.102Z,101936.09
2024-04-18T06:57:51.582Z,101934.91
2024-04-18T07:00:18.999Z,101940.75
2024-04-18T07:02:46.583Z,101937.56
2024-04-18T07:05:32.105Z,101940.78
2024-04-18T07:08:18.400Z,101940.72
2024-04-18T07:10:45.751Z,101937.09
2024-04-18T07:13:29.410Z,101942.19
2024-04-18T07:16:02.418Z,101942.97
2024-04-18T07:18:48.447Z,101943.41
2024-04-18T07:21:17.056Z,101954.81
2024-04-18T07:23:44.260Z,101962.75
2024-04-18T07:26:11.494Z,101957.00
2024-04-18T07:28:38.730Z,101960.41
2024-04-18T07:31:06.015Z,101969.81
2024-04-18T07:33:34.940Z,101970.97
2024-04-18T07:36:16.213Z,101969.16
2024-04-18T07:38:43.466Z,101966.28
2024-04-18T07:41:10.715Z,101964.59
2024-04-18T07:43:37.969Z,101957.91
2024-04-18T07:46:05.514Z,101966.28
2024-04-18T07:48:33.131Z,101966.41
2024-04-18T07:51:00.505Z,101959.88
2024-04-18T07:53:28.327Z,101969.19
2024-04-18T07:55:55.654Z,101973.63
2024-04-18T07:58:27.821Z,101965.03
2024-04-18T08:00:56.948Z,101968.56
2024-04-18T08:03:27.449Z,101976.63
2024-04-18T08:05:58.283Z,101978.41
2024-04-18T08:08:30.862Z,101985.50
2024-04-18T08:11:16.506Z,101988.16
2024-04-18T08:13:50.092Z,101994.25
2024-04-18T08:16:20.122Z,101981.06
2024-04-18T08:18:47.396Z,101978.66
2024-04-18T08:21:14.746Z,101983.69
2024-04-18T08:23:42.017Z,101993.13
2024-04-18T08:26:09.272Z,101991.69
2024-04-18T08:28:36.543Z,101998.44
2024-04-18T08:31:03.778Z,102001.78
2024-04-18T08:33:31.225Z,102006.78
2024-04-18T08:35:58.685Z,101999.09
2024-04-18T08:38:26.217Z,102010.25
2024-04-18T08:40:53.893Z,101998.81
2024-04-18T08:43:21.173Z,102003.72
2024-04-18T08:45:49.272Z,102011.41
2024-04-18T08:48:18.369Z,102009.75
2024-04-18T08:50:47.180Z,102009.09
2024-04-18T08:53:14.488Z,102005.78
2024-04-18T08:55:49.499Z,102010.47
2024-04-18T08:58:20.446Z,102019.53
2024-04-18T09:00:48.091Z,102020.41
2024-04-18T09:03:16.069Z,102018.38
2024-04-18T09:05:45.251Z,102014.56
2024-04-18T09:08:14.355Z,102027.56
2024-04-18T09:10:42.345Z,102026.25
2024-04-18T09:13:11.209Z,102023.75
2024-04-18T09:15:38.706Z,102034.34
2024-04-18T09:18:08.027Z,102032.59
2024-04-18T09:20:36.919Z,102034.25
2024-04-18T09:23:05.536Z,102042.34
2024-04-18T09:25:36.384Z,102039.81
2024-04-18T09:28:06.140Z,102033.66
2024-04-18T09:30:33.555Z,102035.41
2024-04-18T09:33:06.818Z,102041.47
2024-04-18T09:35:36.976Z,102033.28
2024-04-18T09:38:10.298Z,102041.09
2024-04-18T09:40:42.501Z,102035.50
2024-04-18T09:43:27.760Z,102030.88
2024-04-18T09:46:11.028Z,102035.88
2024-04-18T09:48:38.763Z,102034.47
2024-04-18T09:51:07.512Z,102029.44
2024-04-18T09:53:35.674Z,102030.03
2024-04-18T09:56:03.487Z,102034.28
2024-04-18T09:58:30.781Z,102031.50
2024-04-18T10:00:58.365Z,102027.13
2024-04-18T10:03:26.496Z,102022.69
2024-04-18T10:05:57.680Z,102031.59
2024-04-18T10:08:31.071Z,102030.34
2024-04-18T10:10:59.205Z,102028.78
2024-04-18T10:13:26.835Z,102025.59
2024-04-18T10:16:24.572Z,102022.38
2024-04-18T10:18:54.286Z,102033.66
2024-04-18T10:21:33.105Z,102022.84
2024-04-18T10:24:11.081Z,102020.81
2024-04-18T10:26:39.742Z,102019.44
2024-04-18T10:29:27.796Z,102016.13
2024-04-18T10:32:01.883Z,102031.72
2024-04-18T10:34:31.162Z,102030.81
2024-04-18T10:37:04.239Z,102033.00
2024-04-18T10:39:32.350Z,102037.03
2024-04-18T10:42:03.040Z,102035.28
2024-04-18T10:44:31.142Z,102037.44
2024-04-18T10:46:58.701Z,102036.88
2024-04-18T10:49:26.537Z,102038.94
2024-04-18T10:51:55.190Z,102031.78
2024-04-18T10:54:22.431Z,102033.53
2024-04-18T10:56:51.455Z,102040.66
2024-04-18T10:59:18.658Z,102042.19
2024-04-18T11:01:46.005Z,102040.91
2024-04-18T11:04:13.510Z,102054.88
2024-04-18T11:06:41.437Z,102043.63
2024-04-18T11:09:09.255Z,102047.69
2024-04-18T11:11:39.587Z,102041.00
2024-04-18T11:14:09.456Z,102041.88
2024-04-18T11:16:38.194Z,102045.56
2024-04-18T11:19:05.832Z,102049.38
2024-04-18T11:21:33.254Z,102041.38
2024-04-18T11:24:00.694Z,102036.19
2024-04-18T11:26:33.443Z,102041.81
2024-04-18T11:29:02.608Z,102030.19
2024-04-18T11:31:29.816Z,102025.84
2024-04-18T11:33:57.741Z,102025.94
2024-04-18T11:36:26.501Z,102023.00
2024-04-18T11:38:53.761Z,102017.69
2024-04-18T11:41:21.152Z,102017.69
2024-04-18T11:43:48.339Z,102018.16
2024-04-18T11:46:16.026Z,102018.16
2024-04-18T11:48:43.468Z,102009.16
2024-04-18T11:51:10.820Z,102007.44
2024-04-18T11:53:38.060Z,102005.25
2024-04-18T11:56:05.571Z,102015.44
2024-04-18T11:58:32.818Z,102008.63
2024-04-18T12:01:00.041Z,102011.63
2024-04-18T12:03:41.537Z,102000.84
2024-04-18T12:06:28.405Z,102002.97
2024-04-18T12:08:56.647Z,102021.19
2024-04-18T12:11:33.634Z,102010.72
2024-04-18T12:14:16.008Z,102014.63
2024-04-18T12:16:55.689Z,102019.63
2024-04-18T12:19:42.708Z,102020.72
2024-04-18T12:22:30.808Z,102026.25
2024-04-18T12:25:19.499Z,102026.16
2024-04-18T12:27:47.600Z,102025.28
2024-04-18T12:30:31.316Z,102022.28
2024-04-18T12:33:20.378Z,102022.81
2024-04-18T12:35:48.848Z,102021.28
2024-04-18T12:38:17.035Z,102025.19
2024-04-18T12:40:45.186Z,102038.81
2024-04-18T12:43:19.003Z,102040.66
2024-04-18T12:46:06.408Z,102036.97
2024-04-18T12:48:51.388Z,102029.84
2024-04-18T12:51:18.966Z,102029.72
2024-04-18T12:53:46.417Z,102029.72
2024-04-18T12:56:14.212Z,102026.16
2024-04-18T12:58:44.567Z,102026.50
2024-04-18T13:01:13.134Z,102029.66
2024-04-18T13:03:41.536Z,102029.00
2024-04-18T13:06:28.642Z,102037.34
2024-04-18T13:08:58.103Z,102021.63
2024-04-18T13:11:43.336Z,102017.91
2024-04-18T13:14:11.182Z,102004.94
2024-04-18T13:16:38.684Z,102004.66
2024-04-18T13:19:12.440Z,102009.78
2024-04-18T13:21:40.268Z,102001.72
2024-04-18T13:24:12.201Z,101997.66
2024-04-18T13:26:52.374Z,101999.91
2024-04-18T13:29:20.298Z,101998.19
2024-04-18T13:31:47.930Z,101999.38
2024-04-18T13:34:22.375Z,101995.06
2024-04-18T13:36:50.073Z,102006.16
2024-04-18T13:39:17.885Z,102002.91
2024-04-18T13:42:04.560Z,101998.47
2024-04-18T13:44:54.431Z,101998.72
2024-04-18T13:47:44.540Z,101990.06
2024-04-18T13:50:11.944Z,101995.84
2024-04-18T13:52:39.640Z,101993.69
2024-04-18T13:55:07.162Z,101999.69
2024-04-18T13:57:34.763Z,101998.44
2024-04-18T14:00:21.055Z,101998.88
2024-04-18T14:02:52.109Z,101997.47
2024-04-18T14:05:20.692Z,101997.75
2024-04-18T14:08:03.868Z,101999.94
2024-04-18T14:10:31.804Z,101997.56
2024-04-18T14:13:17.858Z,101992.63
2024-04-18T14:16:08.230Z,101993.94
2024-04-18T14:18:54.722Z,101988.97
2024-04-18T14:21:35.306Z,101993.09
2024-04-18T14:24:02.896Z,101985.94
2024-04-18T14:26:30.132Z,101996.03
2024-04-18T14:29:17.771Z,101985.94
2024-04-18T14:32:01.936Z,101995.03
2024-04-18T14:34:48.970Z,101995.16
2024-04-18T14:37:19.338Z,101999.06
2024-04-18T14:39:47.671Z,102008.25
2024-04-18T14:42:14.975Z,101999.38
2024-04-18T14:44:42.943Z,101992.47
2024-04-18T14:47:17.526Z,101994.41
2024-04-18T14:50:01.920Z,101988.03
2024-04-18T14:52:34.919Z,101993.22
2024-04-18T14:55:25.984Z,101991.28
2024-04-18T14:58:02.148Z,101982.19
2024-04-18T15:00:52.476Z,101988.44
2024-04-18T15:03:20.558Z,101974.94
2024-04-18T15:05:55.175Z,101979.25
2024-04-18T15:08:39.330Z,101983.13
2024-04-18T15:11:25.321Z,101977.56
2024-04-18T15:14:07.526Z,101974.53
2024-04-18T15:16:35.361Z,101978.09
2024-04-18T15:19:02.795Z,101971.94
2024-04-18T15:21:50.486Z,101968.25
2024-04-18T15:24:18.203Z,101972.91
2024-04-18T15:27:01.949Z,101963.28
2024-04-18T15:29:29.150Z,101971.41
2024-04-18T15:32:16.055Z,101971.19
2024-04-18T15:34:45.973Z,101976.38
2024-04-18T15:37:32.098Z,101982.66
2024-04-18T15:39:59.482Z,101978.31
2024-04-18T15:42:26.873Z,101978.56
2024-04-18T15:44:54.359Z,101967.50
2024-04-18T15:47:31.578Z,101977.13
2024-04-18T15:50:18.864Z,101974.19
2024-04-18T15:52:46.499Z,101973.97
2024-04-18T15:55:30.948Z,101976.56
2024-04-18T15:58:18.452Z,101973.75
2024-04-18T16:00:45.871Z,101968.31
2024-04-18T16:03:34.450Z,101965.38
2024-04-18T16:06:24.782Z,101964.53
2024-04-18T16:09:11.895Z,101970.06
2024-04-18T16:11:40.420Z,101969.06
2024-04-18T16:14:28.047Z,101970.81
2024-04-18T16:16:55.387Z,101974.59
2024-04-18T16:19:38.158Z,101973.22
2024-04-18T16:22:06.046Z,101972.47
2024-04-18T16:24:49.005Z,101982.66
2024-04-18T16:27:17.494Z,101982.13
2024-04-18T16:30:02.547Z,101977.28
2024-04-18T16:32:42.144Z,101975.22
2024-04-18T16:35:09.525Z,101969.41
2024-04-18T16:37:40.695Z,101966.28
2024-04-18T16:40:17.775Z,101964.13
2024-04-18T16:43:03.287Z,101971.69
2024-04-18T16:45:50.716Z,101970.09
2024-04-18T16:48:18.096Z,101960.34
2024-04-18T16:50:45.525Z,101966.91
2024-04-18T16:53:12.764Z,101977.31
2024-04-18T16:55:43.273Z,101956.00
2024-04-18T16:58:17.902Z,101965.28
2024-04-18T17:00:55.023Z,101969.31
2024-04-18T17:03:22.476Z,101958.91
2024-04-18T17:06:02.485Z,101967.34
2024-04-18T17:08:29.770Z,101970.25
2024-04-18T17:10:57.151Z,101963.34
2024-04-18T17:13:42.830Z,101968.94
2024-04-18T17:16:10.825Z,101955.84
2024-04-18T17:18:46.207Z,101962.44
2024-04-18T17:21:13.765Z,101961.00
2024-04-18T17:23:41.083Z,101958.53
2024-04-18T17:26:08.364Z,101958.94
2024-04-18T17:28:35.635Z,101964.63
2024-04-18T17:31:03.222Z,101957.59
2024-04-18T17:33:30.593Z,101956.09
2024-04-18T17:36:01.148Z,101939.31
2024-04-18T17:38:48.353Z,101942.34
2024-04-18T17:41:32.237Z,101944.28
2024-04-18T17:44:18.211Z,101935.72
2024-04-18T17:46:57.946Z,101945.97
2024-04-18T17:49:25.986Z,101926.41
2024-04-18T17:51:54.417Z,101935.59
2024-04-18T17:54:22.711Z,101931.25
2024-04-18T17:56:50.383Z,101937.63
2024-04-18T17:59:17.979Z,101936.75
2024-04-18T18:01:45.759Z,101942.34
2024-04-18T18:04:16.287Z,101932.72
2024-04-18T18:06:43.557Z,101931.97
2024-04-18T18:09:10.871Z,101927.53
2024-04-18T18:11:38.226Z,101928.59
2024-04-18T18:14:05.624Z,101923.31
2024-04-18T18:16:51.451Z,101914.47
2024-04-18T18:19:18.815Z,101906.56
2024-04-18T18:21:58.819Z,101913.13
2024-04-18T18:24:26.440Z,101914.00
2024-04-18T18:26:54.548Z,101907.84
2024-04-18T18:29:22.131Z,101906.09
2024-04-18T18:32:13.996Z,101905.34
2024-04-18T18:34:48.906Z,101909.09
2024-04-18T18:37:17.218Z,101903.00
2024-04-18T18:40:05.965Z,101903.13
2024-04-18T18:42:33.364Z,101896.19
2024-04-18T18:45:00.642Z,101901.59
2024-04-18T18:47:28.078Z,101895.44
2024-04-18T18:49:55.597Z,101897.47
2024-04-18T18:52:24.021Z,101898.44
2024-04-18T18:54:51.495Z,101902.97
2024-04-18T18:57:18.870Z,101905.75
2024-04-18T18:59:49.336Z,101909.41
2024-04-18T19:02:17.113Z,101911.44
2024-04-18T19:05:02.472Z,101904.38
2024-04-18T19:07:29.796Z,101899.19
2024-04-18T19:09:57.174Z,101900.16
2024-04-18T19:12:25.575Z,101894.19
2024-04-18T19:14:53.443Z,101895.06
2024-04-18T19:17:20.744Z,101897.00
2024-04-18T19:19:47.971Z,101893.53
2024-04-18T19:22:15.864Z,101894.50
2024-04-18T19:24:43.393Z,101893.84
2024-04-18T19:27:10.788Z,101894.13
2024-04-18T19:29:46.092Z,101899.72
2024-04-18T19:32:17.165Z,101896.44
2024-04-18T19:34:44.490Z,101898.38
2024-04-18T19:37:11.767Z,101892.41
2024-04-18T19:39:39.034Z,101894.34
2024-04-18T19:42:06.545Z,101885.50
2024-04-18T19:44:34.390Z,101880.19
2024-04-18T19:47:01.669Z,101878.56
2024-04-18T19:49:29.808Z,101881.34
2024-04-18T19:51:58.703Z,101876.94
2024-04-18T19:54:27.331Z,101871.63
2024-04-18T19:56:54.853Z,101867.31
2024-04-18T19:59:22.519Z,101856.59
2024-04-18T20:01:50.007Z,101851.19
2024-04-18T20:04:17.925Z,101861.97
2024-04-18T20:06:45.234Z,101860.25
2024-04-18T20:09:12.482Z,101856.59
2024-04-18T20:11:39.787Z,101850.34
2024-04-18T20:14:07.044Z,101838.69
2024-04-18T20:16:35.207Z,101858.50
2024-04-18T20:19:16.475Z,101847.94
2024-04-18T20:21:44.977Z,101837.16
2024-04-18T20:24:13.570Z,101830.91
2024-04-18T20:27:13.056Z,101822.16
2024-04-18T20:29:46.419Z,101816.00
2024-04-18T20:32:26.450Z,101808.88
2024-04-18T20:34:54.793Z,101809.84
2024-04-18T20:37:23.265Z,101812.53
2024-04-18T20:39:51.520Z,101806.28
2024-04-18T20:42:20.374Z,101801.75
2024-04-18T20:45:00.412Z,101799.91
2024-04-18T20:47:28.029Z,101796.25
2024-04-18T20:49:55.426Z,101789.03
2024-04-18T20:52:23.404Z,101785.59
2024-04-18T20:54:51.351Z,101781.06
2024-04-18T20:57:18.867Z,101770.28
2024-04-18T20:59:46.173Z,101763.06
2024-04-18T21:02:13.564Z,101763.94
2024-04-18T21:04:41.869Z,101744.22
2024-04-18T21:07:09.057Z,101752.19
2024-04-18T21:09:36.749Z,101753.16
2024-04-18T21:12:04.141Z,101749.59
2024-04-18T21:14:31.376Z,101742.28
2024-04-18T21:17:01.177Z,101735.25
2024-04-18T21:19:28.416Z,101733.44
2024-04-18T21:21:55.655Z,101722.66
2024-04-18T21:24:23.423Z,101725.25
2024-04-18T21:26:50.715Z,101729.78
2024-04-18T21:29:18.243Z,101736.97
2024-04-18T21:31:45.509Z,101727.06
2024-04-18T21:34:12.998Z,101722.66
2024-04-18T21:36:40.426Z,101724.38
2024-04-18T21:39:08.043Z,101721.59
2024-04-18T21:41:39.189Z,101715.34
2024-04-18T21:44:06.587Z,101710.91
2024-04-18T21:46:33.964Z,101719.00
2024-04-18T21:49:01.307Z,101719.84
2024-04-18T21:51:28.791Z,101711.88
2024-04-18T21:53:56.148Z,101713.81
2024-04-18T21:56:23.694Z,101707.66
2024-04-18T21:58:53.924Z,101700.44
2024-04-18T22:01:40.199Z,101688.78
2024-04-18T22:04:07.495Z,101679.84
2024-04-18T22:06:34.863Z,101671.75
2024-04-18T22:09:02.181Z,101664.53
2024-04-18T22:11:29.455Z,101654.53
2024-04-18T22:13:57.278Z,101652.91
2024-04-18T22:16:24.630Z,101645.69
2024-04-18T22:18:52.203Z,101634.03
2024-04-18T22:21:37.064Z,101629.53
2024-04-18T22:24:08.020Z,101624.13
2024-04-18T22:26:36.054Z,101616.81
2024-04-18T22:29:03.358Z,101598.06
2024-04-18T22:31:30.575Z,101597.28
2024-04-18T22:33:58.441Z,101596.34
2024-04-18T22:36:29.061Z,101596.44
2024-04-18T22:38:57.829Z,101592.13
2024-04-18T22:41:27.551Z,101587.03
2024-04-18T22:43:54.935Z,101594.56
2024-04-18T22:46:22.251Z,101585.91
2024-04-18T22:48:49.637Z,101586.22
2024-04-18T22:51:17.404Z,101574.13
2024-04-18T22:53:44.677Z,101574.22
2024-04-18T22:56:11.869Z,101567.13
2024-04-18T22:58:39.072Z,101563.78
2024-04-18T23:01:06.661Z,101554.06
2024-04-18T23:03:34.169Z,101551.78
2024-04-18T23:06:14.286Z,101554.56
2024-04-18T23:08:41.971Z,101545.72
2024-04-18T23:11:09.231Z,101542.19
2024-04-18T23:13:36.576Z,101530.66
2024-04-18T23:16:03.958Z,101527.41
2024-04-18T23:18:31.313Z,101524.78
2024-04-18T23:20:58.632Z,101507.00
2024-04-18T23:23:34.942Z,101508.06
2024-04-18T23:26:02.378Z,101499.31
2024-04-18T23:28:29.608Z,101483.34
2024-04-18T23:30:57.365Z,101476.13
2024-04-18T23:33:24.723Z,101467.22
2024-04-18T23:35:52.035Z,101457.41
2024-04-18T23:38:19.398Z,101459.34
2024-04-18T23:40:46.761Z,101462.88
2024-04-18T23:43:13.984Z,101450.28
2024-04-18T23:45:41.233Z,101454.06
2024-04-18T23:48:10.219Z,101447.81
2024-04-18T23:50:37.614Z,101447.81
2024-04-18T23:53:05.166Z,101444.34
2024-04-18T23:55:32.489Z,101440.03
2024-04-18T23:58:00.235Z,101435.53
